Time;durP1;ratioP1;P1;durP2;ratioP2;P2;SDS_P1;SDS_P2;PMS_P1;PMS_P2;Temp;Humidity;BMP_temperature;BMP_pressure;BME280_temperature;BME280_humidity;BME280_pressure;Samples;Min_cycle;Max_cycle;Signal;HPM_P1;HPM_P2
2022/03/29 00:01:10;;;;;;;16.00;7.83;;;;;7.50;96602.00;;;;5070869;28;20207;-85
2022/03/29 00:04:02;;;;;;;16.83;9.03;;;;;7.70;96612.00;;;;5071369;28;20597;-86
2022/03/29 00:06:53;;;;;;;11.00;8.20;;;;;7.40;96594.00;;;;5070607;28;20199;-85
2022/03/29 00:09:42;;;;;;;8.23;6.83;;;;;7.20;96598.00;;;;5070886;28;20565;-86
2022/03/29 00:16:16;;;;;;;13.00;7.23;;;;;6.50;96584.00;;;;5075978;28;20195;-85
2022/03/29 00:19:10;;;;;;;11.03;8.30;;;;;6.80;96590.00;;;;5066160;28;20196;-85
2022/03/29 00:22:00;;;;;;;12.27;7.50;;;;;6.70;96585.00;;;;5073340;28;20200;-85
2022/03/29 00:24:49;;;;;;;11.87;6.73;;;;;6.10;96577.00;;;;5072276;28;20230;-86
2022/03/29 00:27:38;;;;;;;12.77;7.13;;;;;5.60;96561.00;;;;5071376;28;20204;-85
2022/03/29 00:30:27;;;;;;;9.60;8.30;;;;;6.10;96569.00;;;;5072744;28;20215;-86
2022/03/29 00:33:16;;;;;;;8.60;6.90;;;;;6.20;96567.00;;;;5071594;28;20455;-86
2022/03/29 00:36:06;;;;;;;10.57;7.33;;;;;6.40;96572.00;;;;5073589;28;20211;-86
2022/03/29 00:38:56;;;;;;;10.37;7.57;;;;;6.60;96567.00;;;;5073583;28;20422;-86
2022/03/29 00:41:45;;;;;;;13.77;8.53;;;;;6.80;96560.00;;;;5074655;28;20430;-85
2022/03/29 00:44:38;;;;;;;7.90;7.10;;;;;6.60;96552.00;;;;5074762;28;20223;-86
2022/03/29 00:47:27;;;;;;;10.23;8.47;;;;;6.20;96553.00;;;;5069528;28;20956;-87
2022/03/29 00:50:16;;;;;;;10.43;7.67;;;;;6.10;96567.00;;;;5069795;28;20211;-86
2022/03/29 00:53:06;;;;;;;7.57;6.53;;;;;6.10;96554.00;;;;5068695;28;20953;-85
2022/03/29 00:55:59;;;;;;;12.07;7.83;;;;;6.50;96557.00;;;;5069612;28;20423;-85
2022/03/29 00:58:49;;;;;;;8.60;7.43;;;;;6.60;96552.00;;;;5067921;28;20482;-85
2022/03/29 01:01:38;;;;;;;10.77;7.00;;;;;6.50;96552.00;;;;5068238;28;20430;-86
2022/03/29 01:04:27;;;;;;;10.70;6.57;;;;;5.50;96536.00;;;;5068889;28;20462;-85
2022/03/29 01:07:16;;;;;;;14.07;9.40;;;;;5.50;96552.00;;;;5069299;28;20203;-86
2022/03/29 01:10:06;;;;;;;10.40;7.57;;;;;5.80;96543.00;;;;5069997;28;20441;-86
2022/03/29 01:12:57;;;;;;;9.37;7.33;;;;;6.00;96534.00;;;;5070488;28;20516;-86
2022/03/29 01:15:47;;;;;;;10.17;7.27;;;;;5.90;96533.00;;;;5072284;28;20821;-85
2022/03/29 01:18:35;;;;;;;12.00;9.23;;;;;6.10;96523.00;;;;5072955;28;20469;-85
2022/03/29 01:21:26;;;;;;;10.50;7.37;;;;;5.80;96517.00;;;;5073597;28;20433;-86
2022/03/29 01:24:17;;;;;;;11.17;6.40;;;;;5.90;96521.00;;;;5073469;28;20220;-85
2022/03/29 01:27:07;;;;;;;11.67;7.67;;;;;5.90;96526.00;;;;5072126;28;20430;-86
2022/03/29 01:29:59;;;;;;;7.93;7.07;;;;;6.10;96515.00;;;;5075492;28;20541;-85
2022/03/29 01:32:50;;;;;;;9.10;6.67;;;;;6.10;96509.00;;;;5073583;28;20422;-85
2022/03/29 01:35:40;;;;;;;9.23;7.17;;;;;5.30;96514.00;;;;5073947;28;20196;-85
2022/03/29 01:38:29;;;;;;;9.97;7.20;;;;;4.60;96503.00;;;;5071695;28;20477;-86
2022/03/29 01:41:19;;;;;;;10.93;7.27;;;;;5.50;96508.00;;;;5073626;28;20434;-86
2022/03/29 01:44:08;;;;;;;8.20;6.33;;;;;5.90;96508.00;;;;5073877;28;20455;-86
2022/03/29 01:46:57;;;;;;;8.03;7.17;;;;;5.60;96500.00;;;;5072538;28;20814;-86
2022/03/29 01:49:46;;;;;;;8.67;6.83;;;;;4.50;96497.00;;;;5074647;28;20434;-85
2022/03/29 01:52:40;;;;;;;11.70;8.43;;;;;4.40;96491.00;;;;5072927;28;20429;-86
2022/03/29 01:55:29;;;;;;;7.43;6.17;;;;;4.90;96509.00;;;;5071336;28;20842;-85
2022/03/29 01:58:19;;;;;;;4.50;3.10;;;;;4.80;96497.00;;;;5057922;28;20461;-86
2022/03/29 02:01:08;;;;;;;8.67;6.87;;;;;4.60;96485.00;;;;5072381;28;20434;-86
2022/03/29 02:03:58;;;;;;;10.20;7.27;;;;;5.00;96485.00;;;;5072396;28;20450;-86
2022/03/29 02:06:47;;;;;;;4.77;4.17;;;;;4.10;96477.00;;;;5072425;28;20441;-86
2022/03/29 02:09:36;;;;;;;7.17;5.90;;;;;4.40;96488.00;;;;5072325;28;20438;-85
2022/03/29 02:12:25;;;;;;;9.50;6.63;;;;;5.10;96489.00;;;;5073053;28;20434;-86
2022/03/29 02:15:15;;;;;;;12.00;7.37;;;;;5.50;96485.00;;;;5073450;28;20437;-85
2022/03/29 02:18:05;;;;;;;7.73;6.30;;;;;5.40;96484.00;;;;5071289;28;20465;-86
2022/03/29 02:20:54;;;;;;;6.97;6.20;;;;;4.70;96483.00;;;;5073434;28;20427;-85
2022/03/29 02:23:43;;;;;;;9.87;7.40;;;;;4.40;96474.00;;;;5077654;28;20458;-86
2022/03/29 02:26:32;;;;;;;12.17;7.03;;;;;4.50;96486.00;;;;5077150;28;20418;-86
2022/03/29 02:29:21;;;;;;;11.97;6.87;;;;;4.90;96483.00;;;;5077414;28;20430;-86
2022/03/29 02:32:12;;;;;;;7.73;5.83;;;;;4.70;96483.00;;;;5074934;28;20443;-86
2022/03/29 02:35:01;;;;;;;9.73;6.77;;;;;5.20;96470.00;;;;5072397;28;20956;-86
2022/03/29 02:37:50;;;;;;;8.67;6.87;;;;;5.40;96475.00;;;;5072328;28;20847;-86
2022/03/29 02:40:39;;;;;;;8.73;7.30;;;;;5.00;96474.00;;;;5072939;28;20423;-85
2022/03/29 02:43:28;;;;;;;9.83;7.63;;;;;4.90;96467.00;;;;5072036;28;20454;-86
2022/03/29 02:46:17;;;;;;;9.37;6.93;;;;;5.00;96475.00;;;;5070967;28;20435;-86
2022/03/29 02:49:07;;;;;;;8.70;6.10;;;;;4.50;96466.00;;;;5070362;28;20429;-86
2022/03/29 02:51:56;;;;;;;11.20;6.93;;;;;4.70;96476.00;;;;5067201;28;20821;-85
2022/03/29 02:54:45;;;;;;;9.77;7.23;;;;;4.90;96473.00;;;;5069430;28;20454;-86
2022/03/29 02:57:34;;;;;;;12.80;5.83;;;;;5.10;96472.00;;;;5072813;28;20434;-86
2022/03/29 03:00:24;;;;;;;12.00;8.07;;;;;5.20;96473.00;;;;5071497;28;20446;-86
2022/03/29 03:03:13;;;;;;;11.87;7.50;;;;;4.00;96459.00;;;;5071829;28;20743;-86
2022/03/29 03:06:03;;;;;;;9.70;6.87;;;;;4.00;96466.00;;;;5072023;28;20953;-86
2022/03/29 03:08:52;;;;;;;10.00;5.57;;;;;4.10;96465.00;;;;5071808;28;20442;-86
2022/03/29 03:11:41;;;;;;;10.30;7.20;;;;;4.70;96463.00;;;;5060144;28;20513;-86
2022/03/29 03:14:30;;;;;;;12.77;6.80;;;;;4.70;96466.00;;;;5072104;28;21099;-86
2022/03/29 03:17:19;;;;;;;9.17;7.37;;;;;4.30;96458.00;;;;5070647;28;20815;-86
2022/03/29 03:20:09;;;;;;;12.27;8.30;;;;;4.50;96461.00;;;;5071724;28;20449;-86
2022/03/29 03:22:59;;;;;;;9.37;7.00;;;;;4.40;96462.00;;;;5060858;28;20431;-85
2022/03/29 03:25:50;;;;;;;9.10;7.73;;;;;4.00;96448.00;;;;5071366;28;20447;-86
2022/03/29 03:28:39;;;;;;;11.67;7.10;;;;;4.10;96463.00;;;;5072017;28;21162;-86
2022/03/29 03:31:28;;;;;;;9.60;7.37;;;;;4.10;96458.00;;;;5073038;28;20842;-85
2022/03/29 03:34:17;;;;;;;9.70;5.70;;;;;3.80;96448.00;;;;5070948;28;20458;-86
2022/03/29 03:37:07;;;;;;;8.97;7.80;;;;;4.00;96449.00;;;;5070507;28;20838;-86
2022/03/29 03:39:57;;;;;;;12.50;8.10;;;;;4.40;96453.00;;;;5070620;28;20478;-86
2022/03/29 03:42:46;;;;;;;9.70;7.20;;;;;4.20;96445.00;;;;5071194;28;20437;-86
2022/03/29 03:45:35;;;;;;;11.60;7.27;;;;;3.80;96443.00;;;;5071236;28;20438;-85
2022/03/29 03:48:24;;;;;;;10.50;7.60;;;;;3.50;96438.00;;;;5071237;28;20422;-85
2022/03/29 03:51:13;;;;;;;9.20;6.67;;;;;3.70;96443.00;;;;5070967;28;20443;-86
2022/03/29 03:54:02;;;;;;;7.77;6.13;;;;;3.60;96435.00;;;;5066760;28;20439;-86
2022/03/29 03:56:53;;;;;;;10.73;7.87;;;;;3.60;96439.00;;;;5065513;28;21156;-86
2022/03/29 03:59:42;;;;;;;13.83;7.20;;;;;3.90;96433.00;;;;5070933;28;20839;-86
2022/03/29 04:02:31;;;;;;;11.23;7.60;;;;;3.90;96442.00;;;;5069144;28;20976;-86
2022/03/29 04:05:21;;;;;;;10.50;7.47;;;;;3.30;96434.00;;;;5067741;28;20419;-86
2022/03/29 04:08:10;;;;;;;12.10;7.73;;;;;3.80;96430.00;;;;5067575;28;20442;-85
2022/03/29 04:10:59;;;;;;;10.30;7.17;;;;;4.00;96432.00;;;;5076040;28;20837;-86
2022/03/29 04:13:50;;;;;;;7.10;6.33;;;;;4.00;96426.00;;;;5073133;28;20450;-86
2022/03/29 04:16:39;;;;;;;8.33;6.30;;;;;3.70;96434.00;;;;5076631;28;20433;-86
2022/03/29 04:19:28;;;;;;;10.27;7.67;;;;;3.80;96428.00;;;;5070500;28;20470;-85
2022/03/29 04:22:18;;;;;;;10.90;7.03;;;;;4.10;96432.00;;;;5070385;28;20431;-86
2022/03/29 04:25:08;;;;;;;8.20;6.03;;;;;4.00;96430.00;;;;5072792;28;20835;-87
2022/03/29 04:27:57;;;;;;;11.37;7.73;;;;;3.80;96422.00;;;;5071745;28;20434;-86
2022/03/29 04:30:48;;;;;;;9.47;7.53;;;;;3.30;96412.00;;;;5064724;28;20434;-86
2022/03/29 04:33:38;;;;;;;8.90;7.50;;;;;3.60;96420.00;;;;5070113;28;20454;-87
2022/03/29 04:36:27;;;;;;;10.60;8.60;;;;;3.80;96427.00;;;;5069531;28;20438;-86
2022/03/29 04:39:16;;;;;;;10.80;8.17;;;;;3.30;96418.00;;;;5072452;28;20466;-87
2022/03/29 04:42:05;;;;;;;12.53;8.50;;;;;3.20;96420.00;;;;5073559;28;20435;-86
2022/03/29 04:44:55;;;;;;;8.93;8.00;;;;;3.30;96416.00;;;;5075838;28;20562;-85
2022/03/29 04:47:47;;;;;;;10.17;6.97;;;;;3.30;96411.00;;;;5075273;28;20434;-87
2022/03/29 04:50:38;;;;;;;9.80;8.13;;;;;3.10;96408.00;;;;5067007;28;21250;-86
2022/03/29 04:53:27;;;;;;;15.77;8.50;;;;;3.40;96418.00;;;;5073329;28;20968;-85
2022/03/29 04:56:17;;;;;;;15.80;8.10;;;;;3.10;96405.00;;;;5076245;28;20835;-85
2022/03/29 04:59:06;;;;;;;13.00;8.27;;;;;3.30;96407.00;;;;5076329;28;20864;-85
2022/03/29 05:01:56;;;;;;;6.60;5.43;;;;;3.00;96401.00;;;;5075245;28;20426;-85
2022/03/29 05:04:46;;;;;;;9.03;7.10;;;;;3.20;96406.00;;;;5072181;28;20442;-86
2022/03/29 05:07:35;;;;;;;11.87;9.30;;;;;3.60;96413.00;;;;5072780;28;20441;-86
2022/03/29 05:10:25;;;;;;;11.83;9.47;;;;;3.70;96419.00;;;;5074387;22;20430;-80
2022/03/29 05:13:17;;;;;;;9.50;5.97;;;;;3.80;96405.00;;;;5018997;28;20441;-84
2022/03/29 05:16:06;;;;;;;10.70;7.37;;;;;4.00;96418.00;;;;5030264;28;20429;-84
2022/03/29 05:18:55;;;;;;;10.77;7.07;;;;;3.60;96415.00;;;;5026052;28;20472;-84
2022/03/29 05:21:46;;;;;;;9.23;7.47;;;;;3.80;96407.00;;;;5033118;28;20436;-84
2022/03/29 05:24:35;;;;;;;9.93;7.90;;;;;3.80;96403.00;;;;5031354;28;20460;-82
2022/03/29 05:27:24;;;;;;;11.63;8.00;;;;;3.90;96405.00;;;;5022422;28;20433;-84
2022/03/29 05:30:14;;;;;;;12.30;6.10;;;;;4.00;96410.00;;;;5026910;28;20440;-82
2022/03/29 05:33:03;;;;;;;13.03;8.97;;;;;4.00;96413.00;;;;5031853;28;20424;-84
2022/03/29 05:35:52;;;;;;;16.00;10.27;;;;;3.70;96394.00;;;;5036077;23;20493;-65
2022/03/29 05:38:48;;;;;;;13.13;8.63;;;;;3.80;96391.00;;;;5009698;28;20430;-68
2022/03/29 05:41:37;;;;;;;16.87;10.13;;;;;3.80;96394.00;;;;5003637;28;20431;-68
2022/03/29 05:44:26;;;;;;;12.87;8.47;;;;;3.80;96404.00;;;;5006751;28;20453;-67
2022/03/29 05:50:21;;;;;;;16.20;8.80;;;;;4.30;96408.00;;;;5032568;23;20493;-66
2022/03/29 05:53:10;;;;;;;5.37;4.87;;;;;4.30;96404.00;;;;5004310;28;20426;-67
2022/03/29 05:56:01;;;;;;;12.37;8.07;;;;;4.10;96403.00;;;;5008428;28;20441;-66
2022/03/29 05:58:50;;;;;;;9.23;6.47;;;;;4.00;96398.00;;;;4992116;28;20457;-68
2022/03/29 06:01:39;;;;;;;4.60;3.87;;;;;3.90;96413.00;;;;5002073;28;20449;-69
2022/03/29 06:04:28;;;;;;;10.80;7.70;;;;;4.00;96401.00;;;;4999205;28;20438;-68
2022/03/29 06:07:17;;;;;;;13.17;9.60;;;;;4.40;96403.00;;;;5009954;28;20973;-66
2022/03/29 06:10:07;;;;;;;15.07;8.23;;;;;4.70;96417.00;;;;5008379;28;20453;-66
2022/03/29 06:12:58;;;;;;;10.27;6.33;;;;;4.90;96411.00;;;;5007010;28;20449;-67
2022/03/29 06:15:47;;;;;;;7.27;6.47;;;;;4.90;96409.00;;;;5013396;28;20433;-69
2022/03/29 06:18:37;;;;;;;10.40;7.67;;;;;5.10;96415.00;;;;5005441;28;20449;-68
2022/03/29 06:21:25;;;;;;;10.00;7.77;;;;;5.20;96411.00;;;;5000180;28;20432;-68
2022/03/29 06:24:15;;;;;;;11.43;8.40;;;;;5.60;96413.00;;;;5011517;28;20444;-67
2022/03/29 06:27:04;;;;;;;11.90;8.13;;;;;5.90;96409.00;;;;5012110;28;21296;-68
2022/03/29 06:29:57;;;;;;;15.73;8.07;;;;;5.90;96417.00;;;;5011876;28;20465;-67
2022/03/29 06:32:47;;;;;;;10.30;8.13;;;;;6.00;96412.00;;;;5015099;28;20471;-68
2022/03/29 06:35:38;;;;;;;11.83;8.40;;;;;6.10;96414.00;;;;4999125;28;20421;-67
2022/03/29 06:38:31;;;;;;;16.40;8.50;;;;;6.30;96414.00;;;;5003865;28;20947;-68
2022/03/29 06:41:21;;;;;;;14.90;9.03;;;;;6.70;96413.00;;;;5000200;28;20421;-67
2022/03/29 06:44:10;;;;;;;12.07;8.47;;;;;7.10;96410.00;;;;5008897;28;20206;-67
2022/03/29 06:47:01;;;;;;;11.37;9.30;;;;;7.60;96407.00;;;;5010995;28;20449;-67
2022/03/29 06:49:52;;;;;;;13.20;8.93;;;;;7.50;96404.00;;;;5012017;28;20734;-67
2022/03/29 06:52:44;;;;;;;13.87;8.87;;;;;7.60;96397.00;;;;5008228;28;20206;-66
2022/03/29 06:55:34;;;;;;;15.93;8.93;;;;;7.90;96391.00;;;;5008145;28;20544;-66
2022/03/29 06:58:23;;;;;;;11.57;9.10;;;;;8.30;96390.00;;;;5010475;28;20217;-67
2022/03/29 07:01:12;;;;;;;13.50;8.77;;;;;8.40;96389.00;;;;5010908;28;20202;-67
2022/03/29 07:04:03;;;;;;;11.70;9.47;;;;;9.00;96387.00;;;;5011766;28;20218;-66
2022/03/29 07:06:53;;;;;;;12.93;9.47;;;;;9.20;96388.00;;;;5007435;28;20571;-68
2022/03/29 07:12:49;;;;;;;13.07;9.90;;;;;9.90;96378.00;;;;5005141;28;20617;-67
2022/03/29 07:15:38;;;;;;;16.10;10.03;;;;;10.40;96376.00;;;;5017614;28;20580;-67
2022/03/29 07:18:27;;;;;;;15.57;10.57;;;;;10.50;96367.00;;;;5002555;28;20709;-67
2022/03/29 07:21:17;;;;;;;20.80;10.63;;;;;10.50;96367.00;;;;5002145;28;20245;-67
2022/03/29 07:24:07;;;;;;;14.03;9.97;;;;;10.60;96370.00;;;;5003304;28;20582;-68
2022/03/29 07:26:57;;;;;;;13.13;9.20;;;;;10.70;96368.00;;;;5000227;28;20213;-67
2022/03/29 07:29:46;;;;;;;13.83;9.83;;;;;11.20;96368.00;;;;4997040;28;20531;-68
2022/03/29 07:32:43;;;;;;;17.10;9.60;;;;;11.30;96368.00;;;;5003866;28;20210;-68
2022/03/29 07:35:33;;;;;;;13.97;10.33;;;;;11.60;96367.00;;;;5002051;28;20213;-68
2022/03/29 07:38:23;;;;;;;17.37;11.23;;;;;11.60;96356.00;;;;5002849;28;20229;-68
2022/03/29 07:41:12;;;;;;;13.53;9.10;;;;;11.60;96370.00;;;;5004291;28;20232;-69
2022/03/29 07:44:02;;;;;;;15.10;10.83;;;;;11.70;96357.00;;;;4995800;28;20207;-67
2022/03/29 07:46:51;;;;;;;16.87;10.70;;;;;11.90;96366.00;;;;4991645;28;20210;-68
2022/03/29 07:49:42;;;;;;;15.03;9.87;;;;;12.00;96367.00;;;;4996844;28;20288;-67
2022/03/29 07:52:51;;;;;;;17.60;9.37;;;;;11.90;96367.00;;;;4996867;28;21154;-67
2022/03/29 07:55:42;;;;;;;15.87;10.17;;;;;12.60;96366.00;;;;4997965;28;20209;-67
2022/03/29 07:58:34;;;;;;;15.57;8.30;;;;;12.60;96362.00;;;;4999573;28;20687;-68
2022/03/29 08:01:23;;;;;;;14.80;9.23;;;;;12.40;96358.00;;;;4992399;28;20221;-68
2022/03/29 08:04:12;;;;;;;16.50;9.90;;;;;12.90;96352.00;;;;4996317;28;20213;-68
2022/03/29 08:07:01;;;;;;;15.30;9.07;;;;;13.00;96354.00;;;;4996058;28;20201;-68
2022/03/29 08:09:50;;;;;;;13.63;9.63;;;;;13.30;96358.00;;;;4991734;28;20237;-67
2022/03/29 08:12:40;;;;;;;17.53;10.57;;;;;13.30;96351.00;;;;4990821;28;20214;-67
2022/03/29 08:15:30;;;;;;;15.30;9.23;;;;;13.50;96356.00;;;;4997384;28;20229;-68
2022/03/29 08:18:20;;;;;;;19.00;9.30;;;;;14.20;96346.00;;;;5005015;28;20257;-66
2022/03/29 08:24:12;;;;;;;16.40;10.43;;;;;14.30;96327.00;;;;4999776;28;20209;-67
2022/03/29 08:27:01;;;;;;;19.30;9.67;;;;;14.40;96338.00;;;;5008508;28;20607;-67
2022/03/29 08:29:51;;;;;;;16.67;8.53;;;;;14.70;96329.00;;;;4998394;28;20233;-66
2022/03/29 08:32:40;;;;;;;12.50;9.40;;;;;14.80;96318.00;;;;5007741;28;20210;-67
2022/03/29 08:35:29;;;;;;;14.07;9.00;;;;;15.00;96321.00;;;;5010075;28;20217;-67
2022/03/29 08:38:18;;;;;;;17.20;10.17;;;;;15.40;96317.00;;;;5007727;28;20202;-66
2022/03/29 08:41:15;;;;;;;16.03;9.50;;;;;15.60;96321.00;;;;5007036;28;20209;-66
2022/03/29 08:44:04;;;;;;;10.87;8.20;;;;;15.70;96314.00;;;;5009310;28;20205;-67
2022/03/29 08:46:54;;;;;;;19.27;9.20;;;14.70;68.00;16.10;96309.00;;;;5008501;28;20236;-67
2022/03/29 08:49:49;;;;;;;14.13;9.50;;;14.80;67.90;16.30;96320.00;;;;5008987;28;20234;-67
2022/03/29 08:52:40;;;;;;;14.53;9.70;;;15.00;66.60;16.50;96318.00;;;;5009547;28;20213;-68
2022/03/29 08:55:29;;;;;;;16.67;9.73;;;15.20;65.90;16.20;96315.00;;;;5009292;28;20205;-67
2022/03/29 08:58:18;;;;;;;11.17;9.23;;;15.40;64.40;16.70;96332.00;;;;5007208;28;20221;-65
2022/03/29 09:01:06;;;;;;;16.50;9.63;;;15.50;63.50;17.00;96324.00;;;;5009607;28;20213;-65
2022/03/29 09:04:10;;;;;;;18.00;10.47;;;15.70;62.70;17.20;96338.00;;;;5009840;28;20205;-65
2022/03/29 09:07:01;;;;;;;13.70;9.30;;;15.90;61.70;17.10;96328.00;;;;5007808;28;20205;-66
2022/03/29 09:09:49;;;;;;;12.73;8.80;;;16.00;61.60;17.40;96313.00;;;;4999251;28;20225;-67
2022/03/29 09:12:38;;;;;;;12.50;7.97;;;16.20;60.90;17.70;96315.00;;;;5009321;28;20222;-67
2022/03/29 09:15:37;;;;;;;10.27;8.60;;;16.30;60.50;18.30;96309.00;;;;5005525;28;20206;-66
2022/03/29 09:18:27;;;;;;;11.97;8.87;;;16.60;60.40;18.60;96310.00;;;;5009418;28;20206;-67
2022/03/29 09:21:18;;;;;;;17.33;9.37;;;16.90;59.90;18.60;96299.00;;;;5002726;28;20213;-67
2022/03/29 09:24:09;;;;;;;17.33;9.93;;;17.10;58.80;18.80;96289.00;;;;5001036;28;20560;-66
2022/03/29 09:26:58;;;;;;;13.13;9.13;;;17.30;58.50;19.20;96286.00;;;;4997275;28;20198;-67
2022/03/29 09:30:07;;;;;;;13.07;9.23;;;17.60;58.20;19.40;96281.00;;;;4995920;28;20225;-67
2022/03/29 09:33:02;;;;;;;15.73;8.73;;;17.80;56.80;19.60;96270.00;;;;5008166;28;20226;-67
2022/03/29 09:36:00;;;;;;;12.83;8.60;;;18.00;56.40;19.90;96276.00;;;;4992278;28;20214;-67
2022/03/29 09:38:53;;;;;;;14.53;8.57;;;18.30;56.20;19.80;96264.00;;;;5002232;28;20222;-66
2022/03/29 09:41:42;;;;;;;10.40;8.63;;;18.50;54.30;20.30;96267.00;;;;5009717;28;20229;-66
2022/03/29 09:44:41;;;;;;;9.87;8.70;;;18.60;54.70;20.70;96258.00;;;;5008189;28;20214;-66
2022/03/29 09:47:30;;;;;;;11.63;8.60;;;18.90;54.80;20.90;96264.00;;;;5001075;28;20203;-65
2022/03/29 09:50:18;;;;;;;11.37;8.20;;;19.20;54.10;20.90;96254.00;;;;5001522;28;20242;-66
2022/03/29 09:53:07;;;;;;;10.03;7.73;;;19.40;52.70;20.70;96249.00;;;;5002254;28;20243;-66
2022/03/29 09:56:01;;;;;;;12.07;8.43;;;19.60;52.10;21.50;96248.00;;;;4995523;28;20210;-65
2022/03/29 09:59:04;;;;;;;25.30;9.43;;;19.80;51.90;21.70;96241.00;;;;4996918;28;20230;-65
2022/03/29 10:01:57;;;;;;;11.43;7.87;;;20.00;51.50;22.10;96243.00;;;;5000835;28;20206;-67
2022/03/29 10:04:46;;;;;;;14.53;8.47;;;20.20;51.50;22.30;96242.00;;;;5004599;28;20236;-66
2022/03/29 10:07:44;;;;;;;11.03;8.30;;;20.40;50.80;22.50;96234.00;;;;5010488;28;20202;-67
2022/03/29 10:10:33;;;;;;;13.97;8.67;;;20.70;50.80;22.80;96229.00;;;;5010371;28;20237;-67
2022/03/29 10:13:24;;;;;;;13.47;9.33;;;20.90;48.60;22.60;96220.00;;;;4997313;28;20252;-66
2022/03/29 10:16:16;;;;;;;11.30;9.07;;;21.10;48.20;22.30;96216.00;;;;4997625;28;20700;-66
2022/03/29 10:19:05;;;;;;;16.13;9.97;;;21.20;46.60;23.00;96210.00;;;;5002584;28;20226;-66
2022/03/29 10:21:55;;;;;;;16.73;9.73;;;21.30;47.20;23.40;96200.00;;;;5005973;28;20305;-67
2022/03/29 10:24:44;;;;;;;11.60;8.43;;;21.50;48.30;23.20;96203.00;;;;5009259;28;20250;-67
2022/03/29 10:27:33;;;;;;;13.80;9.70;;;21.70;47.40;23.60;96208.00;;;;5000005;28;20273;-67
2022/03/29 10:30:39;;;;;;;19.70;9.57;;;21.90;46.80;23.20;96188.00;;;;5012037;28;20253;-67
2022/03/29 10:33:31;;;;;;;13.00;9.50;;;21.90;44.20;22.60;96178.00;;;;5002649;28;20233;-67
2022/03/29 10:36:20;;;;;;;9.00;8.07;;;21.90;45.00;21.50;96165.00;;;;4996946;28;20255;-68
2022/03/29 10:39:10;;;;;;;13.07;9.27;;;21.80;43.40;21.80;96158.00;;;;5001725;28;20249;-68
2022/03/29 10:41:59;;;;;;;15.90;9.30;;;21.60;43.20;22.90;96162.00;;;;5011425;28;20206;-68
2022/03/29 10:45:19;;;;;;;13.97;9.17;;;21.50;43.00;22.50;96149.00;;;;5003193;28;20203;-68
2022/03/29 10:48:13;;;;;;;11.47;8.90;;;21.70;43.30;23.40;96147.00;;;;4981508;28;20213;-68
2022/03/29 10:51:02;;;;;;;11.70;9.13;;;21.80;43.10;23.60;96154.00;;;;5017081;28;20201;-67
2022/03/29 10:53:51;;;;;;;11.27;8.90;;;22.00;41.80;23.80;96141.00;;;;5005293;28;20203;-68
2022/03/29 10:56:58;;;;;;;11.87;9.47;;;22.30;42.80;23.90;96127.00;;;;5011749;28;20244;-68
2022/03/29 10:59:58;;;;;;;11.25;8.85;;;22.60;42.10;23.70;96136.00;;;;4999575;28;20413;-67
2022/03/29 11:03:14;;;;;;;15.27;9.47;;;22.90;41.80;23.80;96117.00;;;;5009893;28;20202;-68
2022/03/29 11:06:10;;;;;;;16.10;9.97;;;22.80;41.30;23.30;96122.00;;;;5009185;28;20206;-68
2022/03/29 11:09:05;;;;;;;11.63;8.97;;;22.80;42.20;22.80;96115.00;;;;5011383;28;20225;-69
2022/03/29 11:11:54;;;;;;;18.03;10.17;;;22.60;41.30;24.30;96108.00;;;;5003534;28;20600;-68
2022/03/29 11:14:43;;;;;;;13.57;9.70;;;22.60;43.10;24.80;96120.00;;;;5005274;28;20202;-68
2022/03/29 11:17:41;;;;;;;13.53;9.30;;;22.80;42.70;24.50;96110.00;;;;5003894;28;20217;-68
2022/03/29 11:20:34;;;;;;;14.10;8.97;;;23.10;42.00;24.10;96108.00;;;;5004239;28;20599;-66
2022/03/29 11:23:33;;;;;;;15.57;10.20;;;23.00;41.80;24.10;96101.00;;;;5006034;28;20221;-68
2022/03/29 11:26:23;;;;;;;14.03;9.83;;;23.30;40.40;23.50;96101.00;;;;5000004;28;20197;-68
2022/03/29 11:29:12;;;;;;;16.17;10.53;;;23.20;41.00;23.60;96097.00;;;;5002168;28;20226;-69
2022/03/29 11:32:01;;;;;;;13.90;9.40;;;23.20;41.50;25.10;96105.00;;;;5005011;28;20774;-66
2022/03/29 11:34:55;;;;;;;14.67;10.70;;;23.30;42.50;24.10;96088.00;;;;5007676;28;20286;-68
2022/03/29 11:37:49;;;;;;;15.73;11.57;;;23.60;40.70;25.60;96082.00;;;;5001590;28;20190;-67
2022/03/29 11:40:38;;;;;;;12.37;10.27;;;23.70;41.80;25.90;96073.00;;;;5010482;28;20226;-68
2022/03/29 11:43:28;;;;;;;13.57;10.63;;;23.70;41.60;26.30;96069.00;;;;5012111;28;20208;-67
2022/03/29 11:46:16;;;;;;;14.90;10.53;;;24.30;41.70;23.10;96074.00;;;;5001568;28;20203;-71
2022/03/29 11:49:05;;;;;;;14.23;11.37;;;24.30;39.40;23.40;96064.00;;;;5016991;23;20233;-83
2022/03/29 11:52:11;;;;;;;11.47;9.03;;;23.80;38.80;24.00;96051.00;;;;5022770;28;20206;-84
2022/03/29 11:55:01;;;;;;;17.53;11.20;;;23.70;39.40;25.10;96048.00;;;;5030061;28;20221;-84
2022/03/29 11:57:50;;;;;;;19.37;10.17;;;23.70;39.80;25.20;96045.00;;;;5035953;28;20205;-85
2022/03/29 12:00:39;;;;;;;18.60;11.53;;;23.90;39.30;26.20;96051.00;;;;5040721;28;20630;-85
2022/03/29 12:03:36;;;;;;;16.17;9.90;;;24.20;40.10;25.20;96047.00;;;;5042758;28;20260;-85
2022/03/29 12:06:26;;;;;;;12.27;9.50;;;24.50;39.10;24.50;96026.00;;;;5046831;28;20260;-82
2022/03/29 12:09:22;;;;;;;14.83;10.60;;;24.60;38.60;25.90;96023.00;;;;5058015;28;20195;-83
2022/03/29 12:12:12;;;;;;;14.80;9.50;;;24.50;39.40;23.80;96019.00;;;;5041539;28;20201;-83
2022/03/29 12:15:04;;;;;;;13.63;10.13;;;24.60;38.10;22.80;96015.00;;;;5039684;28;20227;-84
2022/03/29 12:18:40;;;;;;;15.63;10.03;;;24.30;37.70;24.10;96010.00;;;;5037916;28;20196;-84
2022/03/29 12:21:11;;;;;;;17.43;10.17;;;23.90;39.10;25.70;96011.00;;;;5043945;28;20217;-83
2022/03/29 12:24:07;;;;;;;17.17;10.00;;;24.00;38.80;25.20;96010.00;;;;5043484;28;20229;-83
2022/03/29 12:27:04;;;;;;;13.40;9.67;;;24.00;39.20;26.00;96002.00;;;;5052893;28;20225;-83
2022/03/29 12:29:58;;;;;;;16.53;9.73;;;24.30;39.70;26.70;96005.00;;;;5053480;28;20205;-85
2022/03/29 12:32:48;;;;;;;13.53;9.20;;;24.60;39.70;25.70;95997.00;;;;5051895;28;20207;-85
2022/03/29 12:35:37;;;;;;;21.73;11.33;;;24.90;38.30;26.60;96000.00;;;;5056531;28;20231;-85
2022/03/29 12:38:25;;;;;;;14.30;10.93;;;25.00;38.30;26.50;95989.00;;;;5051203;28;20199;-85
2022/03/29 12:41:19;;;;;;;13.43;10.43;;;25.10;39.00;27.70;95965.00;;;;5052081;28;20278;-83
2022/03/29 12:44:10;;;;;;;12.17;10.07;;;25.40;39.40;28.30;95955.00;;;;5055931;28;20241;-85
2022/03/29 12:47:00;;;;;;;15.60;10.87;;;25.90;39.70;28.60;95954.00;;;;5043721;28;20253;-83
2022/03/29 12:49:51;;;;;;;11.73;10.17;;;26.30;38.40;25.60;95938.00;;;;5072036;28;20222;-85
2022/03/29 12:52:41;;;;;;;18.33;11.63;;;26.10;35.70;26.90;95939.00;;;;5068992;28;20200;-86
2022/03/29 12:55:31;;;;;;;13.33;10.73;;;25.90;36.80;28.30;95940.00;;;;5056656;28;20766;-85
2022/03/29 12:58:31;;;;;;;16.07;12.83;;;26.10;38.20;28.60;95922.00;;;;5055611;28;20214;-85
2022/03/29 13:01:29;;;;;;;16.67;11.53;;;26.60;38.20;27.70;95914.00;;;;5054843;28;20733;-85
2022/03/29 13:04:19;;;;;;;14.33;9.27;;;27.10;37.20;25.90;95907.00;;;;5054597;28;20230;-85
2022/03/29 13:07:10;;;;;;;14.13;10.33;;;26.60;35.30;24.40;95900.00;;;;5051067;28;20209;-84
2022/03/29 13:10:01;;;;;;;12.60;10.17;;;25.80;34.80;24.00;95883.00;;;;5052183;28;20202;-82
2022/03/29 13:13:04;;;;;;;19.47;10.17;;;25.10;35.50;26.40;95889.00;;;;5065324;28;20216;-85
2022/03/29 13:15:55;;;;;;;14.20;10.10;;;24.90;37.60;27.60;95902.00;;;;5057859;28;20620;-85
2022/03/29 13:18:51;;;;;;;11.10;9.10;;;25.10;37.80;28.40;95911.00;;;;5060106;28;20194;-84
2022/03/29 13:21:45;;;;;;;14.13;9.53;;;25.70;37.70;28.90;95901.00;;;;5070134;28;20212;-84
2022/03/29 13:24:37;;;;;;;16.63;10.57;;;26.20;37.20;28.50;95892.00;;;;5058446;28;20231;-83
2022/03/29 13:27:26;;;;;;;11.80;9.43;;;26.60;35.70;28.40;95901.00;;;;5055726;28;20202;-84
2022/03/29 13:30:15;;;;;;;11.43;9.40;;;26.70;35.50;27.80;95897.00;;;;5060473;28;20208;-85
2022/03/29 13:33:04;;;;;;;10.90;9.40;;;26.70;34.50;25.10;95866.00;;;;5045144;28;20222;-82
2022/03/29 13:35:53;;;;;;;10.70;9.60;;;26.40;34.10;26.70;95896.00;;;;5058639;28;20236;-85
2022/03/29 13:38:45;;;;;;;11.70;9.30;;;26.00;34.20;25.40;95840.00;;;;5077863;28;20255;-85
2022/03/29 13:41:34;;;;;;;14.27;10.20;;;25.70;34.00;28.10;95839.00;;;;5060114;28;20224;-84
2022/03/29 13:44:23;;;;;;;10.77;9.30;;;25.80;36.10;29.40;95841.00;;;;5060195;28;20602;-86
2022/03/29 13:47:12;;;;;;;17.77;10.47;;;26.30;36.60;29.20;95882.00;;;;5052810;28;20210;-84